Archival Weather

Chicago O'Hare International

Chicago, Illinois (KORD)

Report from: Wednesday, March 27, 2024 2:51 AM CDT
Current time: Tuesday, May 21, 2024 11:44 AM CDT

Current weather – Weather history – Daily summaries
Weather forecast

Temperature-0.6°C (30.9°F)
Wind chill-7.4°C (18.7°F)
Dew point-6.1°C (21.0°F)
Winds 17 kts (8.7 m/s, 19.6 mph) West (260°)
Wind gusts 25 kts (12.9 m/s, 28.8 mph)
Peak wind 32 kts (16.5 m/s, 36.8 mph) West (260°) at 07:17
Visibility10 mi. (16.1 km)
Clouds Ceiling: Overcast 2,400 ft. (732 m)
Altimeter29.86 in.Hg (1011 mB)
Relative humidity66 %
Density altitude-1,797 ft. (-548 m)
Sea-level pressure101.2 kPa (1012 mB, 29.88 in.Hg)
Remarks System requires maintenance
Automated weather observing station with precipitation discriminator
Flight conditions Marginal Visual Meteorological Conditions
Raw dataKORD 270751Z 26017G25KT 10SM OVC024 M01/M06 A2986 RMK AO2 PK WND 26032/0717 SLP118 T10061061 $
An error has occurred. This application may no longer respond until reloaded. Reload 🗙